sensor_id;sensor_type;location;lat;lon;timestamp;pressure;altitude;pressure_sealevel;temperature;humidity
78773;BME280;68111;44.728;11.290;2023-09-08T00:00:25;101897.75;;;28.29;33.80
78773;BME280;68111;44.728;11.290;2023-09-08T00:02:51;101902.47;;;28.25;34.07
78773;BME280;68111;44.728;11.290;2023-09-08T00:05:18;101903.50;;;28.23;33.77
78773;BME280;68111;44.728;11.290;2023-09-08T00:07:45;101899.97;;;28.21;34.18
78773;BME280;68111;44.728;11.290;2023-09-08T00:10:12;101899.16;;;28.19;33.76
78773;BME280;68111;44.728;11.290;2023-09-08T00:12:38;101903.81;;;28.17;33.97
78773;BME280;68111;44.728;11.290;2023-09-08T00:15:06;101895.81;;;28.14;34.01
78773;BME280;68111;44.728;11.290;2023-09-08T00:17:33;101896.69;;;28.14;33.97
78773;BME280;68111;44.728;11.290;2023-09-08T00:20:00;101887.66;;;28.14;34.24
78773;BME280;68111;44.728;11.290;2023-09-08T00:22:27;101892.13;;;28.15;34.17
78773;BME280;68111;44.728;11.290;2023-09-08T00:24:53;101890.38;;;28.14;34.42
78773;BME280;68111;44.728;11.290;2023-09-08T00:27:21;101897.81;;;28.10;34.07
78773;BME280;68111;44.728;11.290;2023-09-08T00:29:48;101894.38;;;28.07;34.00
78773;BME280;68111;44.728;11.290;2023-09-08T00:32:15;101889.91;;;28.05;34.43
78773;BME280;68111;44.728;11.290;2023-09-08T00:34:43;101890.84;;;28.04;34.53
78773;BME280;68111;44.728;11.290;2023-09-08T00:37:09;101886.47;;;28.02;34.28
78773;BME280;68111;44.728;11.290;2023-09-08T00:39:38;101877.59;;;27.98;34.73
78773;BME280;68111;44.728;11.290;2023-09-08T00:42:06;101882.16;;;27.98;34.84
78773;BME280;68111;44.728;11.290;2023-09-08T00:44:34;101892.31;;;27.94;34.99
78773;BME280;68111;44.728;11.290;2023-09-08T00:47:00;101883.34;;;27.92;34.66
78773;BME280;68111;44.728;11.290;2023-09-08T00:49:27;101876.16;;;27.91;34.82
78773;BME280;68111;44.728;11.290;2023-09-08T00:51:55;101889.75;;;27.91;34.58
78773;BME280;68111;44.728;11.290;2023-09-08T00:54:22;101891.66;;;27.89;34.78
78773;BME280;68111;44.728;11.290;2023-09-08T00:56:55;101884.56;;;27.87;35.00
78773;BME280;68111;44.728;11.290;2023-09-08T00:59:22;101887.34;;;27.85;34.89
78773;BME280;68111;44.728;11.290;2023-09-08T01:01:49;101887.50;;;27.82;34.93
78773;BME280;68111;44.728;11.290;2023-09-08T01:04:15;101886.72;;;27.80;35.05
78773;BME280;68111;44.728;11.290;2023-09-08T01:06:44;101883.19;;;27.78;35.46
78773;BME280;68111;44.728;11.290;2023-09-08T01:09:12;101875.03;;;27.78;35.12
78773;BME280;68111;44.728;11.290;2023-09-08T01:11:39;101878.72;;;27.77;35.14
78773;BME280;68111;44.728;11.290;2023-09-08T01:14:07;101878.88;;;27.74;35.27
78773;BME280;68111;44.728;11.290;2023-09-08T01:16:34;101878.72;;;27.77;35.17
78773;BME280;68111;44.728;11.290;2023-09-08T01:19:03;101876.06;;;27.76;35.01
78773;BME280;68111;44.728;11.290;2023-09-08T01:22:01;101868.00;;;27.74;35.44
78773;BME280;68111;44.728;11.290;2023-09-08T01:27:24;101858.41;;;27.67;35.38
78773;BME280;68111;44.728;11.290;2023-09-08T01:29:53;101875.84;;;27.63;35.42
78773;BME280;68111;44.728;11.290;2023-09-08T01:32:20;101866.88;;;27.61;35.60
78773;BME280;68111;44.728;11.290;2023-09-08T01:34:47;101876.03;;;27.58;35.53
78773;BME280;68111;44.728;11.290;2023-09-08T01:37:14;101874.19;;;27.59;35.42
78773;BME280;68111;44.728;11.290;2023-09-08T01:39:40;101880.75;;;27.55;35.67
78773;BME280;68111;44.728;11.290;2023-09-08T01:42:07;101879.94;;;27.53;35.58
78773;BME280;68111;44.728;11.290;2023-09-08T01:44:34;101870.13;;;27.50;35.55
78773;BME280;68111;44.728;11.290;2023-09-08T01:47:02;101870.25;;;27.47;35.53
78773;BME280;68111;44.728;11.290;2023-09-08T01:49:29;101878.50;;;27.46;35.61
78773;BME280;68111;44.728;11.290;2023-09-08T01:51:57;101877.69;;;27.44;35.74
78773;BME280;68111;44.728;11.290;2023-09-08T01:54:24;101875.94;;;27.42;35.68
78773;BME280;68111;44.728;11.290;2023-09-08T01:56:51;101873.28;;;27.41;35.46
78773;BME280;68111;44.728;11.290;2023-09-08T01:59:17;101871.63;;;27.38;35.76
78773;BME280;68111;44.728;11.290;2023-09-08T02:01:44;101867.28;;;27.34;35.49
78773;BME280;68111;44.728;11.290;2023-09-08T02:04:11;101873.81;;;27.30;35.73
78773;BME280;68111;44.728;11.290;2023-09-08T02:06:38;101866.75;;;27.26;35.79
78773;BME280;68111;44.728;11.290;2023-09-08T02:09:04;101866.84;;;27.25;36.01
78773;BME280;68111;44.728;11.290;2023-09-08T02:11:31;101871.47;;;27.23;35.91
78773;BME280;68111;44.728;11.290;2023-09-08T02:13:58;101876.09;;;27.21;36.06
78773;BME280;68111;44.728;11.290;2023-09-08T02:16:25;101872.66;;;27.17;36.10
78773;BME280;68111;44.728;11.290;2023-09-08T02:18:52;101877.19;;;27.17;36.07
78773;BME280;68111;44.728;11.290;2023-09-08T02:21:19;101867.22;;;27.17;35.67
78773;BME280;68111;44.728;11.290;2023-09-08T02:23:46;101865.63;;;27.13;35.97
78773;BME280;68111;44.728;11.290;2023-09-08T02:26:12;101857.69;;;27.08;36.22
78773;BME280;68111;44.728;11.290;2023-09-08T02:28:39;101857.03;;;27.03;35.78
78773;BME280;68111;44.728;11.290;2023-09-08T02:31:06;101856.25;;;27.01;35.98
78773;BME280;68111;44.728;11.290;2023-09-08T02:33:33;101860.78;;;27.01;36.55
78773;BME280;68111;44.728;11.290;2023-09-08T02:36:06;101865.34;;;27.00;36.20
78773;BME280;68111;44.728;11.290;2023-09-08T02:38:36;101875.31;;;27.00;36.34
78773;BME280;68111;44.728;11.290;2023-09-08T02:41:04;101867.25;;;26.98;36.23
78773;BME280;68111;44.728;11.290;2023-09-08T02:43:31;101864.56;;;26.97;36.50
78773;BME280;68111;44.728;11.290;2023-09-08T02:45:58;101863.75;;;26.95;36.22
78773;BME280;68111;44.728;11.290;2023-09-08T02:48:25;101869.34;;;26.92;36.08
78773;BME280;68111;44.728;11.290;2023-09-08T02:50:52;101877.63;;;26.89;36.26
78773;BME280;68111;44.728;11.290;2023-09-08T02:53:20;101870.44;;;26.88;36.63
78773;BME280;68111;44.728;11.290;2023-09-08T02:55:47;101871.47;;;26.85;36.62
78773;BME280;68111;44.728;11.290;2023-09-08T02:58:13;101873.38;;;26.83;36.61
78773;BME280;68111;44.728;11.290;2023-09-08T03:00:40;101873.38;;;26.83;36.66
78773;BME280;68111;44.728;11.290;2023-09-08T03:03:07;101871.63;;;26.82;36.60
78773;BME280;68111;44.728;11.290;2023-09-08T03:05:35;101871.69;;;26.81;36.53
78773;BME280;68111;44.728;11.290;2023-09-08T03:08:02;101872.66;;;26.79;36.72
78773;BME280;68111;44.728;11.290;2023-09-08T03:10:29;101875.34;;;26.79;36.81
78773;BME280;68111;44.728;11.290;2023-09-08T03:12:56;101865.53;;;26.77;36.58
78773;BME280;68111;44.728;11.290;2023-09-08T03:15:23;101859.31;;;26.75;36.73
78773;BME280;68111;44.728;11.290;2023-09-08T03:17:50;101869.41;;;26.71;36.99
78773;BME280;68111;44.728;11.290;2023-09-08T03:20:16;101865.03;;;26.69;36.80
78773;BME280;68111;44.728;11.290;2023-09-08T03:22:43;101868.75;;;26.66;36.97
78773;BME280;68111;44.728;11.290;2023-09-08T03:25:10;101871.47;;;26.66;36.79
78773;BME280;68111;44.728;11.290;2023-09-08T03:27:37;101876.91;;;26.66;36.92
78773;BME280;68111;44.728;11.290;2023-09-08T03:30:04;101870.66;;;26.64;37.19
78773;BME280;68111;44.728;11.290;2023-09-08T03:32:31;101871.63;;;26.63;37.35
78773;BME280;68111;44.728;11.290;2023-09-08T03:34:59;101870.81;;;26.61;37.09
78773;BME280;68111;44.728;11.290;2023-09-08T03:37:26;101868.09;;;26.61;37.13
78773;BME280;68111;44.728;11.290;2023-09-08T03:39:53;101876.22;;;26.61;37.25
78773;BME280;68111;44.728;11.290;2023-09-08T03:42:20;101868.09;;;26.61;37.18
78773;BME280;68111;44.728;11.290;2023-09-08T03:44:47;101871.75;;;26.60;37.36
78773;BME280;68111;44.728;11.290;2023-09-08T03:47:14;101865.44;;;26.60;37.30
78773;BME280;68111;44.728;11.290;2023-09-08T03:49:41;101866.47;;;26.57;37.41
78773;BME280;68111;44.728;11.290;2023-09-08T03:52:08;101868.38;;;26.55;37.58
78773;BME280;68111;44.728;11.290;2023-09-08T03:54:34;101864.84;;;26.53;37.38
78773;BME280;68111;44.728;11.290;2023-09-08T03:57:01;101864.94;;;26.52;37.70
78773;BME280;68111;44.728;11.290;2023-09-08T03:59:28;101865.00;;;26.50;37.44
78773;BME280;68111;44.728;11.290;2023-09-08T04:01:54;101868.66;;;26.49;37.87
78773;BME280;68111;44.728;11.290;2023-09-08T04:04:21;101862.44;;;26.47;37.42
78773;BME280;68111;44.728;11.290;2023-09-08T04:06:48;101860.75;;;26.44;37.66
78773;BME280;68111;44.728;11.290;2023-09-08T04:09:15;101859.94;;;26.42;37.74
78773;BME280;68111;44.728;11.290;2023-09-08T04:11:42;101861.91;;;26.39;37.67
78773;BME280;68111;44.728;11.290;2023-09-08T04:14:08;101865.50;;;26.39;37.60
78773;BME280;68111;44.728;11.290;2023-09-08T04:16:35;101853.78;;;26.39;37.76
78773;BME280;68111;44.728;11.290;2023-09-08T04:19:03;101855.53;;;26.40;37.80
78773;BME280;68111;44.728;11.290;2023-09-08T04:21:30;101856.50;;;26.39;37.58
78773;BME280;68111;44.728;11.290;2023-09-08T04:23:57;101861.09;;;26.37;37.57
78773;BME280;68111;44.728;11.290;2023-09-08T04:26:24;101865.56;;;26.38;37.81
78773;BME280;68111;44.728;11.290;2023-09-08T04:28:51;101869.22;;;26.37;37.87
78773;BME280;68111;44.728;11.290;2023-09-08T04:31:18;101867.47;;;26.36;37.78
78773;BME280;68111;44.728;11.290;2023-09-08T04:33:46;101860.28;;;26.35;37.83
78773;BME280;68111;44.728;11.290;2023-09-08T04:36:13;101859.41;;;26.34;37.83
78773;BME280;68111;44.728;11.290;2023-09-08T04:38:40;101862.19;;;26.33;37.71
78773;BME280;68111;44.728;11.290;2023-09-08T04:41:09;101857.75;;;26.30;38.14
78773;BME280;68111;44.728;11.290;2023-09-08T04:43:36;101861.41;;;26.29;37.73
78773;BME280;68111;44.728;11.290;2023-09-08T04:46:03;101865.97;;;26.29;37.81
78773;BME280;68111;44.728;11.290;2023-09-08T04:48:30;101858.78;;;26.28;38.01
78773;BME280;68111;44.728;11.290;2023-09-08T04:50:57;101864.19;;;26.28;37.81
78773;BME280;68111;44.728;11.290;2023-09-08T04:53:25;101873.28;;;26.27;38.07
78773;BME280;68111;44.728;11.290;2023-09-08T04:55:52;101868.81;;;26.26;37.81
78773;BME280;68111;44.728;11.290;2023-09-08T04:58:18;101868.06;;;26.22;38.03
78773;BME280;68111;44.728;11.290;2023-09-08T05:00:46;101875.31;;;26.22;38.27
78773;BME280;68111;44.728;11.290;2023-09-08T05:03:12;101872.75;;;26.19;38.04
78773;BME280;68111;44.728;11.290;2023-09-08T05:05:39;101876.41;;;26.18;37.98
78773;BME280;68111;44.728;11.290;2023-09-08T05:08:06;101877.38;;;26.17;38.17
78773;BME280;68111;44.728;11.290;2023-09-08T05:10:34;101884.69;;;26.14;38.14
78773;BME280;68111;44.728;11.290;2023-09-08T05:13:01;101885.69;;;26.12;38.08
78773;BME280;68111;44.728;11.290;2023-09-08T05:15:27;101888.41;;;26.12;38.12
78773;BME280;68111;44.728;11.290;2023-09-08T05:17:54;101889.44;;;26.09;38.34
78773;BME280;68111;44.728;11.290;2023-09-08T05:20:22;101886.84;;;26.06;38.63
78773;BME280;68111;44.728;11.290;2023-09-08T05:22:49;101890.44;;;26.07;38.16
78773;BME280;68111;44.728;11.290;2023-09-08T05:25:16;101891.38;;;26.06;38.42
78773;BME280;68111;44.728;11.290;2023-09-08T05:27:43;101898.56;;;26.07;38.47
78773;BME280;68111;44.728;11.290;2023-09-08T05:30:12;101894.97;;;26.06;38.46
78773;BME280;68111;44.728;11.290;2023-09-08T05:32:40;101895.06;;;26.05;38.45
78773;BME280;68111;44.728;11.290;2023-09-08T05:35:07;101893.28;;;26.04;38.46
78773;BME280;68111;44.728;11.290;2023-09-08T05:37:34;101897.84;;;26.03;38.54
78773;BME280;68111;44.728;11.290;2023-09-08T05:40:01;101896.06;;;26.02;38.46
78773;BME280;68111;44.728;11.290;2023-09-08T05:42:30;101901.50;;;26.02;38.55
78773;BME280;68111;44.728;11.290;2023-09-08T05:44:57;101901.50;;;26.02;38.53
78773;BME280;68111;44.728;11.290;2023-09-08T05:47:23;101910.56;;;26.01;38.71
78773;BME280;68111;44.728;11.290;2023-09-08T05:49:51;101910.59;;;26.00;38.67
78773;BME280;68111;44.728;11.290;2023-09-08T05:52:18;101912.44;;;25.99;38.49
78773;BME280;68111;44.728;11.290;2023-09-08T05:54:45;101911.47;;;26.00;38.62
78773;BME280;68111;44.728;11.290;2023-09-08T05:57:31;101912.44;;;25.99;38.76
78773;BME280;68111;44.728;11.290;2023-09-08T05:59:58;101905.25;;;25.98;38.72
78773;BME280;68111;44.728;11.290;2023-09-08T06:02:25;101908.03;;;25.97;38.86
78773;BME280;68111;44.728;11.290;2023-09-08T06:04:51;101902.59;;;25.97;38.69
78773;BME280;68111;44.728;11.290;2023-09-08T06:07:18;101900.84;;;25.96;38.55
78773;BME280;68111;44.728;11.290;2023-09-08T06:09:45;101905.31;;;25.97;38.88
78773;BME280;68111;44.728;11.290;2023-09-08T06:12:12;101909.78;;;25.98;38.81
78773;BME280;68111;44.728;11.290;2023-09-08T06:14:39;101902.53;;;25.98;38.94
78773;BME280;68111;44.728;11.290;2023-09-08T06:17:09;101904.38;;;25.98;38.96
78773;BME280;68111;44.728;11.290;2023-09-08T06:19:36;101905.25;;;25.98;39.01
78773;BME280;68111;44.728;11.290;2023-09-08T06:22:03;101904.38;;;25.98;39.14
78773;BME280;68111;44.728;11.290;2023-09-08T06:24:30;101908.84;;;25.99;39.09
78773;BME280;68111;44.728;11.290;2023-09-08T06:26:57;101909.78;;;25.98;39.21
78773;BME280;68111;44.728;11.290;2023-09-08T06:29:24;101910.66;;;25.98;39.02
78773;BME280;68111;44.728;11.290;2023-09-08T06:31:51;101910.59;;;26.00;39.19
78773;BME280;68111;44.728;11.290;2023-09-08T06:34:17;101907.88;;;26.00;39.28
78773;BME280;68111;44.728;11.290;2023-09-08T06:36:49;101906.06;;;26.00;39.31
78773;BME280;68111;44.728;11.290;2023-09-08T06:39:15;101899.72;;;26.01;39.25
78773;BME280;68111;44.728;11.290;2023-09-08T06:41:42;101901.50;;;26.02;39.47
78773;BME280;68111;44.728;11.290;2023-09-08T06:44:13;101910.50;;;26.03;39.30
78773;BME280;68111;44.728;11.290;2023-09-08T06:46:40;101910.44;;;26.04;39.46
78773;BME280;68111;44.728;11.290;2023-09-08T06:49:07;101903.25;;;26.03;39.43
78773;BME280;68111;44.728;11.290;2023-09-08T06:51:34;101913.94;;;26.06;39.46
78773;BME280;68111;44.728;11.290;2023-09-08T06:54:01;101915.72;;;26.07;39.75
78773;BME280;68111;44.728;11.290;2023-09-08T06:56:35;101907.53;;;26.09;39.56
78773;BME280;68111;44.728;11.290;2023-09-08T06:59:04;101900.28;;;26.09;39.75
78773;BME280;68111;44.728;11.290;2023-09-08T07:01:31;101899.31;;;26.10;39.75
78773;BME280;68111;44.728;11.290;2023-09-08T07:03:59;101906.38;;;26.14;39.84
78773;BME280;68111;44.728;11.290;2023-09-08T07:06:26;101898.22;;;26.14;39.82
78773;BME280;68111;44.728;11.290;2023-09-08T07:08:55;101902.69;;;26.15;39.81
78773;BME280;68111;44.728;11.290;2023-09-08T07:11:22;101901.69;;;26.18;40.20
78773;BME280;68111;44.728;11.290;2023-09-08T07:13:49;101911.50;;;26.21;40.15
78773;BME280;68111;44.728;11.290;2023-09-08T07:16:16;101911.38;;;26.24;40.29
78773;BME280;68111;44.728;11.290;2023-09-08T07:18:43;101911.25;;;26.27;40.04
78773;BME280;68111;44.728;11.290;2023-09-08T07:21:10;101913.81;;;26.30;40.20
78773;BME280;68111;44.728;11.290;2023-09-08T07:23:37;101913.72;;;26.33;40.33
78773;BME280;68111;44.728;11.290;2023-09-08T07:26:06;101919.00;;;26.36;40.55
78773;BME280;68111;44.728;11.290;2023-09-08T07:28:34;101917.03;;;26.39;40.42
78773;BME280;68111;44.728;11.290;2023-09-08T07:31:05;101918.63;;;26.43;40.05
78773;BME280;68111;44.728;11.290;2023-09-08T07:33:35;101914.78;;;26.49;40.09
78773;BME280;68111;44.728;11.290;2023-09-08T07:36:05;101911.91;;;26.52;40.02
78773;BME280;68111;44.728;11.290;2023-09-08T07:38:33;101915.38;;;26.56;40.07
78773;BME280;68111;44.728;11.290;2023-09-08T07:41:03;101916.09;;;26.59;40.08
78773;BME280;68111;44.728;11.290;2023-09-08T07:43:30;101909.59;;;26.63;39.98
78773;BME280;68111;44.728;11.290;2023-09-08T07:45:58;101922.06;;;26.67;39.68
78773;BME280;68111;44.728;11.290;2023-09-08T07:48:25;101918.25;;;26.71;39.73
78773;BME280;68111;44.728;11.290;2023-09-08T07:50:52;101919.00;;;26.75;39.62
78773;BME280;68111;44.728;11.290;2023-09-08T07:53:18;101925.00;;;26.82;39.64
78773;BME280;68111;44.728;11.290;2023-09-08T07:55:45;101923.84;;;26.87;39.46
78773;BME280;68111;44.728;11.290;2023-09-08T07:58:12;101917.25;;;26.93;39.46
78773;BME280;68111;44.728;11.290;2023-09-08T08:00:40;101918.00;;;27.15;39.21
78773;BME280;68111;44.728;11.290;2023-09-08T08:03:07;101919.66;;;29.09;37.13
78773;BME280;68111;44.728;11.290;2023-09-08T08:05:35;101919.47;;;31.89;33.47
78773;BME280;68111;44.728;11.290;2023-09-08T08:08:02;101918.41;;;34.49;29.76
78773;BME280;68111;44.728;11.290;2023-09-08T08:10:29;101921.06;;;36.66;26.81
78773;BME280;68111;44.728;11.290;2023-09-08T08:12:56;101909.31;;;38.41;24.27
78773;BME280;68111;44.728;11.290;2023-09-08T08:15:37;101913.53;;;39.82;22.33
78773;BME280;68111;44.728;11.290;2023-09-08T08:18:05;101915.97;;;40.99;20.87
78773;BME280;68111;44.728;11.290;2023-09-08T08:20:33;101913.63;;;41.86;19.79
78773;BME280;68111;44.728;11.290;2023-09-08T08:23:04;101917.75;;;42.64;18.47
78773;BME280;68111;44.728;11.290;2023-09-08T08:25:32;101916.50;;;43.22;17.52
78773;BME280;68111;44.728;11.290;2023-09-08T08:27:59;101914.81;;;43.74;16.90
78773;BME280;68111;44.728;11.290;2023-09-08T08:30:27;101920.03;;;44.15;16.31
78773;BME280;68111;44.728;11.290;2023-09-08T08:32:55;101913.19;;;44.41;16.08
78773;BME280;68111;44.728;11.290;2023-09-08T08:35:22;101905.31;;;44.74;15.50
78773;BME280;68111;44.728;11.290;2023-09-08T08:38:07;101912.03;;;45.09;14.85
78773;BME280;68111;44.728;11.290;2023-09-08T08:40:38;101903.47;;;45.10;14.56
78773;BME280;68111;44.728;11.290;2023-09-08T08:43:04;101901.66;;;45.03;14.65
78773;BME280;68111;44.728;11.290;2023-09-08T08:45:32;101904.28;;;44.89;14.42
78773;BME280;68111;44.728;11.290;2023-09-08T08:48:00;101899.56;;;44.75;14.27
78773;BME280;68111;44.728;11.290;2023-09-08T08:51:01;101896.44;;;44.41;14.50
78773;BME280;68111;44.728;11.290;2023-09-08T08:53:31;101893.31;;;44.58;14.53
78773;BME280;68111;44.728;11.290;2023-09-08T08:55:59;101896.59;;;44.91;14.08
78773;BME280;68111;44.728;11.290;2023-09-08T08:58:30;101891.59;;;44.87;14.19
78773;BME280;68111;44.728;11.290;2023-09-08T09:00:59;101898.97;;;44.94;13.96
78773;BME280;68111;44.728;11.290;2023-09-08T09:03:27;101885.38;;;45.06;14.02
78773;BME280;68111;44.728;11.290;2023-09-08T09:05:54;101899.50;;;45.34;13.71
78773;BME280;68111;44.728;11.290;2023-09-08T09:08:22;101895.25;;;45.38;13.35
78773;BME280;68111;44.728;11.290;2023-09-08T09:11:12;101887.78;;;45.24;13.59
78773;BME280;68111;44.728;11.290;2023-09-08T09:13:40;101877.75;;;45.15;13.65
78773;BME280;68111;44.728;11.290;2023-09-08T09:16:07;101887.91;;;45.37;13.34
78773;BME280;68111;44.728;11.290;2023-09-08T09:19:03;101874.91;;;45.87;12.89
78773;BME280;68111;44.728;11.290;2023-09-08T09:21:45;101881.06;;;45.76;13.04
78773;BME280;68111;44.728;11.290;2023-09-08T09:24:28;101875.81;;;45.66;12.92
78773;BME280;68111;44.728;11.290;2023-09-08T09:26:56;101875.66;;;45.74;12.92
78773;BME280;68111;44.728;11.290;2023-09-08T09:29:23;101883.38;;;45.93;12.86
78773;BME280;68111;44.728;11.290;2023-09-08T09:32:05;101874.50;;;46.11;12.20
78773;BME280;68111;44.728;11.290;2023-09-08T09:35:17;101870.81;;;45.83;12.43
78773;BME280;68111;44.728;11.290;2023-09-08T09:37:30;101875.69;;;45.38;13.12
78773;BME280;68111;44.728;11.290;2023-09-08T09:39:59;101868.63;;;45.21;12.86
78773;BME280;68111;44.728;11.290;2023-09-08T09:42:28;101864.03;;;44.98;13.36
78773;BME280;68111;44.728;11.290;2023-09-08T09:44:54;101868.59;;;44.70;13.30
78773;BME280;68111;44.728;11.290;2023-09-08T09:47:22;101869.72;;;44.31;13.66
78773;BME280;68111;44.728;11.290;2023-09-08T09:49:49;101864.22;;;44.00;14.01
78773;BME280;68111;44.728;11.290;2023-09-08T09:52:23;101855.84;;;43.86;13.85
78773;BME280;68111;44.728;11.290;2023-09-08T09:54:56;101859.88;;;43.60;14.06
78773;BME280;68111;44.728;11.290;2023-09-08T09:57:23;101855.53;;;43.35;14.07
78773;BME280;68111;44.728;11.290;2023-09-08T09:59:51;101856.34;;;43.13;14.46
78773;BME280;68111;44.728;11.290;2023-09-08T10:02:20;101849.53;;;42.92;14.70
78773;BME280;68111;44.728;11.290;2023-09-08T10:04:49;101845.03;;;42.75;15.07
78773;BME280;68111;44.728;11.290;2023-09-08T10:07:17;101836.09;;;42.40;15.20
78773;BME280;68111;44.728;11.290;2023-09-08T10:09:44;101839.66;;;42.02;15.45
78773;BME280;68111;44.728;11.290;2023-09-08T10:12:13;101830.66;;;41.75;16.15
78773;BME280;68111;44.728;11.290;2023-09-08T10:14:42;101835.81;;;41.54;16.24
78773;BME280;68111;44.728;11.290;2023-09-08T10:17:15;101834.41;;;41.34;16.70
78773;BME280;68111;44.728;11.290;2023-09-08T10:19:45;101834.13;;;40.95;17.10
78773;BME280;68111;44.728;11.290;2023-09-08T10:22:20;101829.00;;;40.74;17.03
78773;BME280;68111;44.728;11.290;2023-09-08T10:24:50;101838.56;;;40.45;17.43
78773;BME280;68111;44.728;11.290;2023-09-08T10:27:20;101832.50;;;40.24;17.42
78773;BME280;68111;44.728;11.290;2023-09-08T10:29:49;101820.56;;;39.97;17.63
78773;BME280;68111;44.728;11.290;2023-09-08T10:32:16;101830.78;;;39.79;18.15
78773;BME280;68111;44.728;11.290;2023-09-08T10:34:45;101819.72;;;39.44;18.30
78773;BME280;68111;44.728;11.290;2023-09-08T10:37:25;101819.84;;;38.79;18.65
78773;BME280;68111;44.728;11.290;2023-09-08T10:39:54;101819.75;;;38.34;19.50
78773;BME280;68111;44.728;11.290;2023-09-08T10:42:25;101816.03;;;38.25;19.95
78773;BME280;68111;44.728;11.290;2023-09-08T10:47:30;101807.91;;;38.04;20.16
78773;BME280;68111;44.728;11.290;2023-09-08T10:49:57;101804.34;;;37.75;20.00
78773;BME280;68111;44.728;11.290;2023-09-08T10:52:26;101812.59;;;37.56;20.21
78773;BME280;68111;44.728;11.290;2023-09-08T10:54:55;101806.50;;;37.42;20.88
78773;BME280;68111;44.728;11.290;2023-09-08T10:57:24;101799.63;;;37.08;20.66
78773;BME280;68111;44.728;11.290;2023-09-08T11:02:38;101803.22;;;36.79;21.18
78773;BME280;68111;44.728;11.290;2023-09-08T11:05:13;101801.34;;;36.80;20.86
78773;BME280;68111;44.728;11.290;2023-09-08T11:07:42;101796.56;;;36.82;21.15
78773;BME280;68111;44.728;11.290;2023-09-08T11:10:10;101801.13;;;36.72;21.19
78773;BME280;68111;44.728;11.290;2023-09-08T11:12:38;101793.53;;;36.54;21.01
78773;BME280;68111;44.728;11.290;2023-09-08T11:15:06;101792.22;;;36.49;20.59
78773;BME280;68111;44.728;11.290;2023-09-08T11:17:38;101790.56;;;36.37;20.60
78773;BME280;68111;44.728;11.290;2023-09-08T11:20:09;101788.41;;;36.19;20.80
78773;BME280;68111;44.728;11.290;2023-09-08T11:22:38;101787.91;;;36.05;20.73
78773;BME280;68111;44.728;11.290;2023-09-08T11:25:07;101791.69;;;35.83;21.23
78773;BME280;68111;44.728;11.290;2023-09-08T11:27:34;101793.28;;;35.65;21.59
78773;BME280;68111;44.728;11.290;2023-09-08T11:30:01;101795.81;;;35.56;21.68
78773;BME280;68111;44.728;11.290;2023-09-08T11:32:32;101787.78;;;35.65;21.27
78773;BME280;68111;44.728;11.290;2023-09-08T11:35:07;101790.19;;;35.58;21.25
78773;BME280;68111;44.728;11.290;2023-09-08T11:37:42;101789.66;;;35.43;21.50
78773;BME280;68111;44.728;11.290;2023-09-08T11:40:10;101785.44;;;35.28;21.90
78773;BME280;68111;44.728;11.290;2023-09-08T11:42:40;101782.47;;;35.20;22.06
78773;BME280;68111;44.728;11.290;2023-09-08T11:45:15;101775.75;;;35.13;21.74
78773;BME280;68111;44.728;11.290;2023-09-08T11:47:44;101782.78;;;34.94;22.25
78773;BME280;68111;44.728;11.290;2023-09-08T11:50:12;101776.94;;;34.77;21.97
78773;BME280;68111;44.728;11.290;2023-09-08T11:52:48;101775.06;;;34.77;22.60
78773;BME280;68111;44.728;11.290;2023-09-08T11:55:16;101770.56;;;34.87;22.26
78773;BME280;68111;44.728;11.290;2023-09-08T11:57:46;101768.81;;;34.86;22.31
78773;BME280;68111;44.728;11.290;2023-09-08T12:00:13;101768.81;;;34.75;21.75
78773;BME280;68111;44.728;11.290;2023-09-08T12:02:44;101764.47;;;34.61;22.03
78773;BME280;68111;44.728;11.290;2023-09-08T12:07:53;101760.97;;;34.59;22.36
78773;BME280;68111;44.728;11.290;2023-09-08T12:10:21;101760.72;;;34.62;22.58
78773;BME280;68111;44.728;11.290;2023-09-08T12:12:49;101759.59;;;34.65;22.53
78773;BME280;68111;44.728;11.290;2023-09-08T12:15:49;101758.59;;;34.66;22.97
78773;BME280;68111;44.728;11.290;2023-09-08T12:18:16;101759.25;;;34.58;23.08
78773;BME280;68111;44.728;11.290;2023-09-08T12:20:44;101746.88;;;34.53;22.77
78773;BME280;68111;44.728;11.290;2023-09-08T12:23:21;101749.63;;;34.53;22.87
78773;BME280;68111;44.728;11.290;2023-09-08T12:25:49;101744.00;;;34.54;22.54
78773;BME280;68111;44.728;11.290;2023-09-08T12:28:19;101735.91;;;34.53;22.92
78773;BME280;68111;44.728;11.290;2023-09-08T12:30:46;101738.91;;;34.50;22.96
78773;BME280;68111;44.728;11.290;2023-09-08T12:33:14;101741.66;;;34.50;22.94
78773;BME280;68111;44.728;11.290;2023-09-08T12:35:46;101743.16;;;34.43;23.18
78773;BME280;68111;44.728;11.290;2023-09-08T12:38:14;101735.81;;;34.32;23.46
78773;BME280;68111;44.728;11.290;2023-09-08T12:40:41;101741.16;;;34.22;23.44
78773;BME280;68111;44.728;11.290;2023-09-08T12:43:08;101731.81;;;34.14;23.65
78773;BME280;68111;44.728;11.290;2023-09-08T12:45:53;101731.19;;;34.10;23.70
78773;BME280;68111;44.728;11.290;2023-09-08T12:48:20;101730.69;;;34.05;23.60
78773;BME280;68111;44.728;11.290;2023-09-08T12:50:46;101723.44;;;33.93;23.93
78773;BME280;68111;44.728;11.290;2023-09-08T12:53:15;101725.94;;;33.85;24.07
78773;BME280;68111;44.728;11.290;2023-09-08T12:55:43;101719.38;;;33.75;23.87
78773;BME280;68111;44.728;11.290;2023-09-08T12:58:10;101719.00;;;33.68;24.09